sensor_id;sensor_type;location;lat;lon;timestamp;pressure;altitude;pressure_sealevel;temperature;humidity
72395;BME280;60384;48.152;11.614;2023-04-27T00:01:12;95700.31;;;8.62;62.02
72395;BME280;60384;48.152;11.614;2023-04-27T00:04:14;95709.72;;;8.60;61.88
72395;BME280;60384;48.152;11.614;2023-04-27T00:07:17;95712.19;;;8.56;61.79
72395;BME280;60384;48.152;11.614;2023-04-27T00:10:18;95706.69;;;8.53;61.35
72395;BME280;60384;48.152;11.614;2023-04-27T00:13:21;95702.72;;;8.50;61.81
72395;BME280;60384;48.152;11.614;2023-04-27T00:16:23;95703.03;;;8.49;61.67
72395;BME280;60384;48.152;11.614;2023-04-27T00:19:24;95709.47;;;8.48;61.95
72395;BME280;60384;48.152;11.614;2023-04-27T00:22:27;95706.31;;;8.46;61.62
72395;BME280;60384;48.152;11.614;2023-04-27T00:25:29;95704.44;;;8.46;61.36
72395;BME280;60384;48.152;11.614;2023-04-27T00:28:32;95699.59;;;8.48;61.14
72395;BME280;60384;48.152;11.614;2023-04-27T00:31:33;95701.94;;;8.50;61.12
72395;BME280;60384;48.152;11.614;2023-04-27T00:34:35;95694.75;;;8.50;61.32
72395;BME280;60384;48.152;11.614;2023-04-27T00:37:37;95692.88;;;8.51;61.20
72395;BME280;60384;48.152;11.614;2023-04-27T00:40:38;95690.50;;;8.49;61.19
72395;BME280;60384;48.152;11.614;2023-04-27T00:43:43;95694.56;;;8.47;61.56
72395;BME280;60384;48.152;11.614;2023-04-27T00:46:45;95695.66;;;8.46;61.14
72395;BME280;60384;48.152;11.614;2023-04-27T00:49:47;95680.75;;;8.45;61.10
72395;BME280;60384;48.152;11.614;2023-04-27T00:52:49;95680.19;;;8.48;61.27
72395;BME280;60384;48.152;11.614;2023-04-27T00:55:51;95683.31;;;8.50;61.21
72395;BME280;60384;48.152;11.614;2023-04-27T00:58:54;95687.25;;;8.52;61.02
72395;BME280;60384;48.152;11.614;2023-04-27T01:01:55;95688.03;;;8.53;61.43
72395;BME280;60384;48.152;11.614;2023-04-27T01:04:57;95688.03;;;8.53;61.60
72395;BME280;60384;48.152;11.614;2023-04-27T01:08:00;95689.91;;;8.52;61.08
72395;BME280;60384;48.152;11.614;2023-04-27T01:11:02;95689.63;;;8.54;61.48
72395;BME280;60384;48.152;11.614;2023-04-27T01:14:06;95685.69;;;8.51;61.50
72395;BME280;60384;48.152;11.614;2023-04-27T01:17:08;95696.31;;;8.51;61.42
72395;BME280;60384;48.152;11.614;2023-04-27T01:20:11;95690.22;;;8.51;61.14
72395;BME280;60384;48.152;11.614;2023-04-27T01:23:15;95692.38;;;8.49;61.74
72395;BME280;60384;48.152;11.614;2023-04-27T01:26:17;95696.44;;;8.46;61.02
72395;BME280;60384;48.152;11.614;2023-04-27T01:29:18;95691.25;;;8.41;61.60
72395;BME280;60384;48.152;11.614;2023-04-27T01:32:20;95689.50;;;8.37;61.64
72395;BME280;60384;48.152;11.614;2023-04-27T01:35:25;95694.59;;;8.33;61.68
72395;BME280;60384;48.152;11.614;2023-04-27T01:38:28;95687.50;;;8.28;61.26
72395;BME280;60384;48.152;11.614;2023-04-27T01:41:30;95691.88;;;8.24;61.70
72395;BME280;60384;48.152;11.614;2023-04-27T01:44:31;95696.19;;;8.20;61.70
72395;BME280;60384;48.152;11.614;2023-04-27T01:47:33;95698.38;;;8.18;61.17
72395;BME280;60384;48.152;11.614;2023-04-27T01:50:35;95700.53;;;8.16;62.21
72395;BME280;60384;48.152;11.614;2023-04-27T01:53:37;95704.59;;;8.14;61.80
72395;BME280;60384;48.152;11.614;2023-04-27T01:56:39;95707.56;;;8.12;61.64
72395;BME280;60384;48.152;11.614;2023-04-27T01:59:41;95707.66;;;8.07;61.45
72395;BME280;60384;48.152;11.614;2023-04-27T02:02:42;95707.00;;;8.02;61.68
72395;BME280;60384;48.152;11.614;2023-04-27T02:05:44;95706.78;;;7.98;61.79
72395;BME280;60384;48.152;11.614;2023-04-27T02:08:48;95709.56;;;7.93;62.35
72395;BME280;60384;48.152;11.614;2023-04-27T02:11:50;95711.81;;;7.86;61.94
72395;BME280;60384;48.152;11.614;2023-04-27T02:14:52;95710.38;;;7.80;61.72
72395;BME280;60384;48.152;11.614;2023-04-27T02:17:54;95706.72;;;7.76;62.40
72395;BME280;60384;48.152;11.614;2023-04-27T02:20:57;95717.34;;;7.76;61.41
72395;BME280;60384;48.152;11.614;2023-04-27T02:24:00;95721.69;;;7.72;62.41
72395;BME280;60384;48.152;11.614;2023-04-27T02:27:01;95716.50;;;7.67;61.49
72395;BME280;60384;48.152;11.614;2023-04-27T02:30:04;95713.31;;;7.65;61.25
72395;BME280;60384;48.152;11.614;2023-04-27T02:33:06;95716.50;;;7.67;61.83
72395;BME280;60384;48.152;11.614;2023-04-27T02:36:08;95722.59;;;7.67;61.19
72395;BME280;60384;48.152;11.614;2023-04-27T02:39:11;95729.56;;;7.63;61.45
72395;BME280;60384;48.152;11.614;2023-04-27T02:42:12;95720.34;;;7.61;61.20
72395;BME280;60384;48.152;11.614;2023-04-27T02:45:16;95720.84;;;7.63;61.28
72395;BME280;60384;48.152;11.614;2023-04-27T02:48:18;95722.69;;;7.62;61.34
72395;BME280;60384;48.152;11.614;2023-04-27T02:51:19;95727.50;;;7.60;61.73
72395;BME280;60384;48.152;11.614;2023-04-27T02:54:22;95730.28;;;7.55;61.67
72395;BME280;60384;48.152;11.614;2023-04-27T02:57:24;95724.28;;;7.50;61.84
72395;BME280;60384;48.152;11.614;2023-04-27T03:00:26;95722.50;;;7.45;61.41
72395;BME280;60384;48.152;11.614;2023-04-27T03:03:27;95731.03;;;7.42;62.26
72395;BME280;60384;48.152;11.614;2023-04-27T03:06:29;95730.34;;;7.36;62.20
72395;BME280;60384;48.152;11.614;2023-04-27T03:09:32;95722.97;;;7.33;62.13
72395;BME280;60384;48.152;11.614;2023-04-27T03:12:34;95720.09;;;7.30;61.83
72395;BME280;60384;48.152;11.614;2023-04-27T03:15:36;95719.91;;;7.26;62.54
72395;BME280;60384;48.152;11.614;2023-04-27T03:51:03;95741.38;;;7.16;62.24
72395;BME280;60384;48.152;11.614;2023-04-27T03:54:04;95729.16;;;7.15;61.10
72395;BME280;60384;48.152;11.614;2023-04-27T03:57:06;95738.38;;;7.18;62.20
72395;BME280;60384;48.152;11.614;2023-04-27T04:00:09;95735.44;;;7.19;61.15
72395;BME280;60384;48.152;11.614;2023-04-27T04:03:15;95738.91;;;7.20;61.67
72395;BME280;60384;48.152;11.614;2023-04-27T04:06:18;95746.28;;;7.23;62.16
72395;BME280;60384;48.152;11.614;2023-04-27T04:09:20;95758.19;;;7.25;61.22
72395;BME280;60384;48.152;11.614;2023-04-27T04:12:22;95760.75;;;7.30;61.98
72395;BME280;60384;48.152;11.614;2023-04-27T04:15:24;95766.75;;;7.36;60.90
72395;BME280;60384;48.152;11.614;2023-04-27T04:18:28;95770.72;;;7.38;61.90
72395;BME280;60384;48.152;11.614;2023-04-27T04:21:31;95773.84;;;7.40;61.60
72395;BME280;60384;48.152;11.614;2023-04-27T04:24:33;95774.16;;;7.39;61.53
72395;BME280;60384;48.152;11.614;2023-04-27T04:27:35;95776.03;;;7.38;62.02
72395;BME280;60384;48.152;11.614;2023-04-27T04:30:37;95778.69;;;7.38;62.05
72395;BME280;60384;48.152;11.614;2023-04-27T04:33:38;95781.06;;;7.40;62.00
72395;BME280;60384;48.152;11.614;2023-04-27T04:36:42;95787.66;;;7.42;61.45
72395;BME280;60384;48.152;11.614;2023-04-27T04:39:44;95784.69;;;7.44;61.09
72395;BME280;60384;48.152;11.614;2023-04-27T04:42:45;95795.84;;;7.46;61.81
72395;BME280;60384;48.152;11.614;2023-04-27T04:45:47;95793.66;;;7.48;61.56
72395;BME280;60384;48.152;11.614;2023-04-27T04:48:48;95797.63;;;7.51;61.82
72395;BME280;60384;48.152;11.614;2023-04-27T04:51:52;95793.56;;;7.53;61.19
72395;BME280;60384;48.152;11.614;2023-04-27T04:54:53;95794.84;;;7.56;60.88
72395;BME280;60384;48.152;11.614;2023-04-27T04:57:55;95793.47;;;7.58;61.04
72395;BME280;60384;48.152;11.614;2023-04-27T05:00:57;95797.69;;;7.59;61.08
72395;BME280;60384;48.152;11.614;2023-04-27T05:04:00;95793.97;;;7.60;61.93
72395;BME280;60384;48.152;11.614;2023-04-27T05:07:03;95801.34;;;7.63;60.91
72395;BME280;60384;48.152;11.614;2023-04-27T05:10:06;95796.75;;;7.69;61.05
72395;BME280;60384;48.152;11.614;2023-04-27T05:13:07;95794.00;;;7.74;61.38
72395;BME280;60384;48.152;11.614;2023-04-27T05:16:09;95801.38;;;7.77;60.97
72395;BME280;60384;48.152;11.614;2023-04-27T05:19:11;95798.59;;;7.82;61.01
72395;BME280;60384;48.152;11.614;2023-04-27T05:22:18;95807.00;;;7.89;60.96
72395;BME280;60384;48.152;11.614;2023-04-27T05:25:20;95802.06;;;7.96;60.91
72395;BME280;60384;48.152;11.614;2023-04-27T05:28:22;95806.22;;;8.02;61.13
72395;BME280;60384;48.152;11.614;2023-04-27T05:31:23;95805.03;;;8.08;61.74
72395;BME280;60384;48.152;11.614;2023-04-27T05:34:25;95794.28;;;8.13;61.80
72395;BME280;60384;48.152;11.614;2023-04-27T05:37:28;95795.84;;;8.14;60.94
72395;BME280;60384;48.152;11.614;2023-04-27T05:40:29;95804.31;;;8.16;61.22
72395;BME280;60384;48.152;11.614;2023-04-27T05:43:31;95809.06;;;8.19;60.80
72395;BME280;60384;48.152;11.614;2023-04-27T05:46:34;95814.28;;;8.24;61.10
72395;BME280;60384;48.152;11.614;2023-04-27T05:49:35;95822.16;;;8.29;61.41
72395;BME280;60384;48.152;11.614;2023-04-27T05:52:38;95831.91;;;8.34;61.50
72395;BME280;60384;48.152;11.614;2023-04-27T05:55:41;95829.94;;;8.40;60.96
72395;BME280;60384;48.152;11.614;2023-04-27T05:58:43;95825.31;;;8.45;61.59
72395;BME280;60384;48.152;11.614;2023-04-27T06:01:44;95821.44;;;8.51;61.16
72395;BME280;60384;48.152;11.614;2023-04-27T06:04:46;95821.84;;;8.58;61.06
72395;BME280;60384;48.152;11.614;2023-04-27T06:07:49;95814.22;;;8.65;61.06
72395;BME280;60384;48.152;11.614;2023-04-27T06:10:51;95819.91;;;8.73;61.23
72395;BME280;60384;48.152;11.614;2023-04-27T06:13:52;95815.75;;;8.80;61.07
72395;BME280;60384;48.152;11.614;2023-04-27T06:16:54;95822.25;;;8.88;60.98
72395;BME280;60384;48.152;11.614;2023-04-27T06:19:56;95822.91;;;8.93;61.14
72395;BME280;60384;48.152;11.614;2023-04-27T06:22:59;95826.72;;;9.01;61.16
72395;BME280;60384;48.152;11.614;2023-04-27T06:26:01;95834.78;;;9.09;61.03
72395;BME280;60384;48.152;11.614;2023-04-27T06:29:03;95832.78;;;9.15;61.12
72395;BME280;60384;48.152;11.614;2023-04-27T06:32:07;95834.53;;;9.20;61.17
72395;BME280;60384;48.152;11.614;2023-04-27T06:35:09;95837.88;;;9.25;60.89
72395;BME280;60384;48.152;11.614;2023-04-27T06:38:12;95837.28;;;9.28;60.81
72395;BME280;60384;48.152;11.614;2023-04-27T06:41:14;95842.16;;;9.35;61.12
72395;BME280;60384;48.152;11.614;2023-04-27T06:44:15;95832.66;;;9.42;61.06
72395;BME280;60384;48.152;11.614;2023-04-27T06:47:17;95828.78;;;9.48;61.15
72395;BME280;60384;48.152;11.614;2023-04-27T06:50:18;95833.97;;;9.53;61.20
72395;BME280;60384;48.152;11.614;2023-04-27T06:53:21;95832.88;;;9.54;61.01
72395;BME280;60384;48.152;11.614;2023-04-27T06:56:23;95837.78;;;9.61;60.93
72395;BME280;60384;48.152;11.614;2023-04-27T06:59:25;95833.28;;;9.70;60.74
72395;BME280;60384;48.152;11.614;2023-04-27T07:02:26;95835.22;;;9.78;60.90
72395;BME280;60384;48.152;11.614;2023-04-27T07:05:28;95828.31;;;9.86;61.22
72395;BME280;60384;48.152;11.614;2023-04-27T07:08:32;95831.84;;;9.95;60.44
72395;BME280;60384;48.152;11.614;2023-04-27T07:11:33;95836.72;;;10.02;60.56
72395;BME280;60384;48.152;11.614;2023-04-27T07:14:35;95841.94;;;10.07;60.81
72395;BME280;60384;48.152;11.614;2023-04-27T07:17:37;95830.81;;;10.13;61.20
72395;BME280;60384;48.152;11.614;2023-04-27T07:20:40;95834.16;;;10.19;60.68
72395;BME280;60384;48.152;11.614;2023-04-27T07:23:43;95837.47;;;10.24;61.12
72395;BME280;60384;48.152;11.614;2023-04-27T07:26:45;95844.41;;;10.34;60.85
72395;BME280;60384;48.152;11.614;2023-04-27T07:29:47;95839.06;;;10.43;60.22
72395;BME280;60384;48.152;11.614;2023-04-27T07:32:48;95842.56;;;10.52;60.48
72395;BME280;60384;48.152;11.614;2023-04-27T07:35:53;95838.00;;;10.61;60.03
72395;BME280;60384;48.152;11.614;2023-04-27T07:38:56;95837.69;;;10.71;60.08
72395;BME280;60384;48.152;11.614;2023-04-27T07:41:59;95846.38;;;10.85;60.16
72395;BME280;60384;48.152;11.614;2023-04-27T07:45:01;95838.03;;;10.95;59.85
72395;BME280;60384;48.152;11.614;2023-04-27T07:48:03;95832.72;;;11.04;60.68
72395;BME280;60384;48.152;11.614;2023-04-27T07:51:05;95833.00;;;11.11;59.74
72395;BME280;60384;48.152;11.614;2023-04-27T07:54:08;95833.81;;;11.20;60.24
72395;BME280;60384;48.152;11.614;2023-04-27T07:57:10;95838.03;;;11.30;60.13
72395;BME280;60384;48.152;11.614;2023-04-27T08:00:12;95839.94;;;11.38;59.73
72395;BME280;60384;48.152;11.614;2023-04-27T08:03:13;95849.03;;;11.45;60.06
72395;BME280;60384;48.152;11.614;2023-04-27T08:06:16;95852.47;;;11.54;59.53
72395;BME280;60384;48.152;11.614;2023-04-27T08:09:19;95849.16;;;11.57;60.43
72395;BME280;60384;48.152;11.614;2023-04-27T08:12:21;95842.22;;;11.65;60.33
72395;BME280;60384;48.152;11.614;2023-04-27T08:15:23;95843.31;;;11.73;59.98
72395;BME280;60384;48.152;11.614;2023-04-27T08:18:24;95844.25;;;11.85;60.35
72395;BME280;60384;48.152;11.614;2023-04-27T08:21:26;95840.72;;;12.02;60.16
72395;BME280;60384;48.152;11.614;2023-04-27T08:24:31;95852.97;;;12.12;59.63
72395;BME280;60384;48.152;11.614;2023-04-27T08:27:32;95854.19;;;12.23;59.87
72395;BME280;60384;48.152;11.614;2023-04-27T08:30:34;95851.03;;;12.29;59.24
72395;BME280;60384;48.152;11.614;2023-04-27T08:33:36;95851.28;;;12.36;59.41
72395;BME280;60384;48.152;11.614;2023-04-27T08:36:37;95850.66;;;12.39;59.48
72395;BME280;60384;48.152;11.614;2023-04-27T08:39:40;95852.47;;;12.48;59.78
72395;BME280;60384;48.152;11.614;2023-04-27T08:42:52;95854.81;;;12.58;59.33
72395;BME280;60384;48.152;11.614;2023-04-27T08:45:55;95850.66;;;12.69;59.64
72395;BME280;60384;48.152;11.614;2023-04-27T08:48:56;95851.63;;;12.85;59.17
72395;BME280;60384;48.152;11.614;2023-04-27T08:51:58;95854.84;;;12.99;59.00
72395;BME280;60384;48.152;11.614;2023-04-27T08:55:01;95847.97;;;13.10;58.85
72395;BME280;60384;48.152;11.614;2023-04-27T08:58:04;95851.47;;;13.32;58.74
72395;BME280;60384;48.152;11.614;2023-04-27T09:01:05;95844.69;;;13.46;58.63
72395;BME280;60384;48.152;11.614;2023-04-27T09:04:07;95841.59;;;13.56;58.41
72395;BME280;60384;48.152;11.614;2023-04-27T09:07:12;95834.13;;;13.62;58.40
72395;BME280;60384;48.152;11.614;2023-04-27T09:10:15;95838.88;;;13.77;58.56
72395;BME280;60384;48.152;11.614;2023-04-27T09:13:17;95831.28;;;13.91;58.19
72395;BME280;60384;48.152;11.614;2023-04-27T09:16:21;95834.00;;;14.03;58.18
72395;BME280;60384;48.152;11.614;2023-04-27T09:19:23;95828.63;;;14.16;57.95
72395;BME280;60384;48.152;11.614;2023-04-27T09:22:25;95829.06;;;14.30;57.61
72395;BME280;60384;48.152;11.614;2023-04-27T09:25:29;95829.91;;;14.42;57.86
72395;BME280;60384;48.152;11.614;2023-04-27T09:28:31;95826.97;;;14.47;58.15
72395;BME280;60384;48.152;11.614;2023-04-27T09:31:34;95823.88;;;14.45;57.78
72395;BME280;60384;48.152;11.614;2023-04-27T09:34:38;95826.00;;;14.52;58.56
72395;BME280;60384;48.152;11.614;2023-04-27T09:37:41;95819.34;;;14.74;57.98
72395;BME280;60384;48.152;11.614;2023-04-27T09:40:44;95818.09;;;14.83;57.90
72395;BME280;60384;48.152;11.614;2023-04-27T09:43:46;95811.75;;;15.04;57.84
72395;BME280;60384;48.152;11.614;2023-04-27T09:46:47;95806.16;;;15.09;57.38
72395;BME280;60384;48.152;11.614;2023-04-27T09:49:49;95815.50;;;14.87;58.35
72395;BME280;60384;48.152;11.614;2023-04-27T09:52:52;95810.47;;;14.85;57.95
72395;BME280;60384;48.152;11.614;2023-04-27T09:55:58;95813.25;;;14.89;57.86
72395;BME280;60384;48.152;11.614;2023-04-27T10:02:22;95807.66;;;15.22;57.86
72395;BME280;60384;48.152;11.614;2023-04-27T10:05:33;95801.66;;;15.41;57.61
72395;BME280;60384;48.152;11.614;2023-04-27T10:08:38;95801.69;;;15.28;57.83
72395;BME280;60384;48.152;11.614;2023-04-27T10:11:42;95801.44;;;15.06;58.57
72395;BME280;60384;48.152;11.614;2023-04-27T10:14:51;95795.41;;;15.37;57.91
72395;BME280;60384;48.152;11.614;2023-04-27T10:17:53;95791.59;;;15.38;57.88
72395;BME280;60384;48.152;11.614;2023-04-27T10:21:09;95783.84;;;15.64;57.71
72395;BME280;60384;48.152;11.614;2023-04-27T10:24:11;95770.97;;;16.20;56.79
72395;BME280;60384;48.152;11.614;2023-04-27T10:27:15;95770.16;;;16.35;56.69
72395;BME280;60384;48.152;11.614;2023-04-27T10:30:19;95778.53;;;16.30;56.84
72395;BME280;60384;48.152;11.614;2023-04-27T10:33:21;95788.47;;;16.26;57.29
72395;BME280;60384;48.152;11.614;2023-04-27T10:36:23;95774.72;;;16.31;56.92
72395;BME280;60384;48.152;11.614;2023-04-27T10:39:35;95783.56;;;16.47;56.94
72395;BME280;60384;48.152;11.614;2023-04-27T10:42:38;95785.97;;;16.52;56.70
72395;BME280;60384;48.152;11.614;2023-04-27T10:45:40;95776.47;;;16.59;56.74
72395;BME280;60384;48.152;11.614;2023-04-27T10:48:43;95776.06;;;16.57;57.27
72395;BME280;60384;48.152;11.614;2023-04-27T10:51:45;95770.16;;;16.67;57.25
72395;BME280;60384;48.152;11.614;2023-04-27T10:54:47;95769.03;;;16.87;57.11
72395;BME280;60384;48.152;11.614;2023-04-27T10:57:50;95777.06;;;16.83;57.16
72395;BME280;60384;48.152;11.614;2023-04-27T11:00:53;95773.41;;;16.76;57.44
72395;BME280;60384;48.152;11.614;2023-04-27T11:03:55;95768.47;;;16.78;57.23
72395;BME280;60384;48.152;11.614;2023-04-27T11:06:57;95768.34;;;16.90;56.90
72395;BME280;60384;48.152;11.614;2023-04-27T11:10:00;95763.91;;;16.63;57.51
72395;BME280;60384;48.152;11.614;2023-04-27T11:13:08;95767.09;;;16.68;57.58
72395;BME280;60384;48.152;11.614;2023-04-27T11:16:10;95779.66;;;16.45;58.00
72395;BME280;60384;48.152;11.614;2023-04-27T11:19:12;95772.88;;;16.35;58.06
72395;BME280;60384;48.152;11.614;2023-04-27T11:22:14;95769.44;;;16.70;57.34
72395;BME280;60384;48.152;11.614;2023-04-27T11:25:25;95773.19;;;16.65;57.55
72395;BME280;60384;48.152;11.614;2023-04-27T11:28:28;95783.81;;;16.42;58.29
72395;BME280;60384;48.152;11.614;2023-04-27T11:31:40;95769.56;;;16.42;58.32
72395;BME280;60384;48.152;11.614;2023-04-27T11:34:47;95774.16;;;16.57;58.02
72395;BME280;60384;48.152;11.614;2023-04-27T11:37:55;95772.50;;;16.52;58.34
72395;BME280;60384;48.152;11.614;2023-04-27T11:40:58;95777.91;;;16.37;58.69
72395;BME280;60384;48.152;11.614;2023-04-27T11:44:05;95778.00;;;16.25;58.82
72395;BME280;60384;48.152;11.614;2023-04-27T11:47:07;95783.34;;;16.21;58.92
72395;BME280;60384;48.152;11.614;2023-04-27T11:50:09;95786.91;;;16.09;58.95
72395;BME280;60384;48.152;11.614;2023-04-27T11:53:11;95782.06;;;16.50;58.47
72395;BME280;60384;48.152;11.614;2023-04-27T11:56:12;95779.06;;;17.25;55.88
72395;BME280;60384;48.152;11.614;2023-04-27T11:59:19;95780.84;;;16.63;57.28
72395;BME280;60384;48.152;11.614;2023-04-27T12:02:21;95789.41;;;16.34;58.30
72395;BME280;60384;48.152;11.614;2023-04-27T12:05:23;95796.09;;;16.24;58.57
72395;BME280;60384;48.152;11.614;2023-04-27T12:08:25;95793.59;;;16.31;58.86
72395;BME280;60384;48.152;11.614;2023-04-27T12:11:26;95788.78;;;16.40;58.34
72395;BME280;60384;48.152;11.614;2023-04-27T12:14:29;95788.78;;;17.91;55.39
72395;BME280;60384;48.152;11.614;2023-04-27T12:17:31;95780.75;;;17.52;56.40
72395;BME280;60384;48.152;11.614;2023-04-27T12:20:33;95782.97;;;17.08;57.63
72395;BME280;60384;48.152;11.614;2023-04-27T12:23:35;95782.97;;;17.08;57.71
72395;BME280;60384;48.152;11.614;2023-04-27T12:26:37;95788.56;;;17.00;58.24
72395;BME280;60384;48.152;11.614;2023-04-27T12:29:40;95785.94;;;17.42;57.56
72395;BME280;60384;48.152;11.614;2023-04-27T12:32:42;95787.13;;;17.83;56.53
72395;BME280;60384;48.152;11.614;2023-04-27T12:35:43;95784.41;;;17.60;56.95
72395;BME280;60384;48.152;11.614;2023-04-27T12:38:45;95788.59;;;19.05;53.63
72395;BME280;60384;48.152;11.614;2023-04-27T12:41:47;95774.84;;;18.11;56.61
72395;BME280;60384;48.152;11.614;2023-04-27T12:44:51;95782.72;;;17.74;57.76
72395;BME280;60384;48.152;11.614;2023-04-27T12:47:53;95776.41;;;19.51;54.34
72395;BME280;60384;48.152;11.614;2023-04-27T12:50:55;95778.66;;;19.12;54.76
72395;BME280;60384;48.152;11.614;2023-04-27T12:53:58;95775.00;;;18.45;56.61
72395;BME280;60384;48.152;11.614;2023-04-27T12:56:59;95777.00;;;19.71;54.44
72395;BME280;60384;48.152;11.614;2023-04-27T13:00:07;95766.03;;;21.14;51.60
72395;BME280;60384;48.152;11.614;2023-04-27T13:03:10;95761.25;;;21.94;50.55
72395;BME280;60384;48.152;11.614;2023-04-27T13:06:12;95760.09;;;22.44;50.29
72395;BME280;60384;48.152;11.614;2023-04-27T13:09:13;95762.81;;;22.58;50.03
72395;BME280;60384;48.152;11.614;2023-04-27T13:12:16;95761.25;;;22.82;50.07
72395;BME280;60384;48.152;11.614;2023-04-27T13:15:19;95757.41;;;22.12;51.93
72395;BME280;60384;48.152;11.614;2023-04-27T13:18:20;95763.59;;;20.91;54.92
72395;BME280;60384;48.152;11.614;2023-04-27T13:21:22;95760.34;;;20.09;56.80
72395;BME280;60384;48.152;11.614;2023-04-27T13:24:23;95766.44;;;19.59;57.80
72395;BME280;60384;48.152;11.614;2023-04-27T13:27:28;95768.50;;;19.06;58.59
72395;BME280;60384;48.152;11.614;2023-04-27T13:30:31;95760.94;;;18.88;58.87
72395;BME280;60384;48.152;11.614;2023-04-27T13:33:38;95763.44;;;18.74;59.05
72395;BME280;60384;48.152;11.614;2023-04-27T13:36:41;95755.09;;;18.56;59.14
72395;BME280;60384;48.152;11.614;2023-04-27T13:39:43;95751.44;;;18.23;59.21
72395;BME280;60384;48.152;11.614;2023-04-27T13:42:45;95758.94;;;18.06;59.38
72395;BME280;60384;48.152;11.614;2023-04-27T13:45:48;95756.66;;;18.08;59.34
72395;BME280;60384;48.152;11.614;2023-04-27T13:48:51;95745.88;;;18.61;57.88
72395;BME280;60384;48.152;11.614;2023-04-27T13:51:53;95751.91;;;18.51;57.86
72395;BME280;60384;48.152;11.614;2023-04-27T13:54:54;95749.59;;;18.27;58.13
72395;BME280;60384;48.152;11.614;2023-04-27T13:57:56;95745.84;;;18.08;58.51
72395;BME280;60384;48.152;11.614;2023-04-27T14:00:59;95750.59;;;17.92;59.04
72395;BME280;60384;48.152;11.614;2023-04-27T14:04:01;95738.69;;;17.74;59.16
72395;BME280;60384;48.152;11.614;2023-04-27T14:07:03;95738.47;;;17.60;59.34
72395;BME280;60384;48.152;11.614;2023-04-27T14:10:05;95744.00;;;17.48;59.10
72395;BME280;60384;48.152;11.614;2023-04-27T14:13:07;95737.25;;;17.38;59.27
72395;BME280;60384;48.152;11.614;2023-04-27T14:16:10;95738.19;;;17.26;59.06
72395;BME280;60384;48.152;11.614;2023-04-27T14:19:12;95736.66;;;17.25;58.95
72395;BME280;60384;48.152;11.614;2023-04-27T14:22:15;95729.59;;;17.21;59.06
72395;BME280;60384;48.152;11.614;2023-04-27T14:25:16;95734.50;;;17.15;58.96
72395;BME280;60384;48.152;11.614;2023-04-27T14:28:18;95734.22;;;17.20;58.62
72395;BME280;60384;48.152;11.614;2023-04-27T14:31:21;95732.50;;;17.31;58.47
72395;BME280;60384;48.152;11.614;2023-04-27T14:34:22;95725.06;;;17.67;57.42
72395;BME280;60384;48.152;11.614;2023-04-27T14:37:24;95726.16;;;17.85;57.08
72395;BME280;60384;48.152;11.614;2023-04-27T14:40:27;95728.41;;;17.60;57.52
72395;BME280;60384;48.152;11.614;2023-04-27T14:43:28;95725.75;;;17.41;58.10
72395;BME280;60384;48.152;11.614;2023-04-27T14:46:32;95721.38;;;17.56;57.67
72395;BME280;60384;48.152;11.614;2023-04-27T14:49:34;95733.28;;;17.74;57.36
72395;BME280;60384;48.152;11.614;2023-04-27T14:52:35;95727.09;;;17.73;57.67
72395;BME280;60384;48.152;11.614;2023-04-27T14:55:37;95726.31;;;17.73;57.70
72395;BME280;60384;48.152;11.614;2023-04-27T14:58:40;95727.88;;;17.74;57.82
72395;BME280;60384;48.152;11.614;2023-04-27T15:01:43;95721.47;;;17.82;57.61
72395;BME280;60384;48.152;11.614;2023-04-27T15:04:44;95722.91;;;17.76;57.65
72395;BME280;60384;48.152;11.614;2023-04-27T15:07:46;95728.03;;;17.81;57.61
72395;BME280;60384;48.152;11.614;2023-04-27T15:10:48;95729.09;;;17.99;57.14
72395;BME280;60384;48.152;11.614;2023-04-27T15:13:49;95729.13;;;18.03;57.27
72395;BME280;60384;48.152;11.614;2023-04-27T15:16:53;95731.06;;;18.02;57.40
72395;BME280;60384;48.152;11.614;2023-04-27T15:19:54;95729.09;;;17.99;57.62
72395;BME280;60384;48.152;11.614;2023-04-27T15:22:56;95723.25;;;17.97;57.53
72395;BME280;60384;48.152;11.614;2023-04-27T15:25:57;95722.78;;;17.92;57.57
72395;BME280;60384;48.152;11.614;2023-04-27T15:28:59;95725.53;;;17.95;57.42
72395;BME280;60384;48.152;11.614;2023-04-27T15:32:02;95721.03;;;18.29;56.95
72395;BME280;60384;48.152;11.614;2023-04-27T15:35:05;95710.03;;;18.68;56.89
72395;BME280;60384;48.152;11.614;2023-04-27T15:38:08;95721.66;;;18.72;56.94
72395;BME280;60384;48.152;11.614;2023-04-27T15:41:10;95710.41;;;18.70;57.32
72395;BME280;60384;48.152;11.614;2023-04-27T15:44:11;95712.84;;;18.52;57.42
72395;BME280;60384;48.152;11.614;2023-04-27T15:47:14;95710.44;;;18.43;58.12
72395;BME280;60384;48.152;11.614;2023-04-27T15:50:16;95710.91;;;18.49;58.06
72395;BME280;60384;48.152;11.614;2023-04-27T15:53:18;95713.81;;;18.37;58.35
72395;BME280;60384;48.152;11.614;2023-04-27T15:56:19;95711.97;;;18.18;58.54
72395;BME280;60384;48.152;11.614;2023-04-27T15:59:21;95716.28;;;17.96;58.74
72395;BME280;60384;48.152;11.614;2023-04-27T16:02:24;95725.66;;;17.80;58.82
72395;BME280;60384;48.152;11.614;2023-04-27T16:05:26;95712.81;;;17.73;58.85
72395;BME280;60384;48.152;11.614;2023-04-27T16:08:27;95719.06;;;17.77;58.64
72395;BME280;60384;48.152;11.614;2023-04-27T16:11:30;95722.19;;;17.79;58.31
72395;BME280;60384;48.152;11.614;2023-04-27T16:14:31;95713.38;;;17.82;58.10
72395;BME280;60384;48.152;11.614;2023-04-27T16:17:34;95711.72;;;17.77;58.02
72395;BME280;60384;48.152;11.614;2023-04-27T16:20:36;95711.19;;;17.68;58.26
72395;BME280;60384;48.152;11.614;2023-04-27T16:23:37;95706.28;;;17.55;58.29
72395;BME280;60384;48.152;11.614;2023-04-27T16:26:39;95698.78;;;17.45;58.55
72395;BME280;60384;48.152;11.614;2023-04-27T16:29:41;95708.56;;;17.30;58.74
72395;BME280;60384;48.152;11.614;2023-04-27T16:32:44;95724.09;;;17.14;58.86
72395;BME280;60384;48.152;11.614;2023-04-27T16:35:45;95726.22;;;17.05;58.74